Ely, Nevada Weather observations

Data are for observation ending at time listed.
 Day   Time    Ave.   Ave.  Ave.  Vector   Max.   Stn.    Total    Solar   Ave.  
  of    of     Air    Rel.  Wind   Wind    Wind   Baro.  Precip.   Rad.    Soil  
Year   Day     Temp.  Hum.  Speed  Dir.    Gust   Pres.                    Temp. 
2014   (PST)    F      %     mph   deg.    mph     mb.     in.     W/m2     F   
------------------------------------------------------------------------------
 354   13:40   37.6    74    5.4   286      6.6   810.0    0.00      60    32.8
 354   13:50   37.7    75    5.0   275      6.8   810.0    0.00      96    32.8
 354   14:00   38.1    74    3.8   280      5.5   810.2    0.00      94    33.0
 354   14:10   38.5    72    2.7   298      4.0   810.3    0.00      90    33.3
 354   14:20   39.1    70    1.6   358      2.6   810.2    0.00     135    33.5
 354   14:30   39.2    69    1.6    27      3.4   810.3    0.00     125    33.8
 354   14:40   39.2    70    3.8    34      6.0   810.3    0.00     116    34.0
 354   14:50   39.1    70    3.7    38      6.1   810.1    0.00     115    34.1
 354   15:00   38.7    72    5.4    36      7.8   810.0    0.00      48    34.2
 354   15:10   38.3    73    3.7   359      5.8   810.3    0.00      20    34.2
 354   15:20   38.3    74    2.6   356      4.8   810.4    0.00      38    34.1
 354   15:30   38.5    74    1.9   336      3.1   810.5    0.00      47    34.2
 354   15:40   38.4    74    1.9   356      3.0   810.4    0.00      38    34.2
 354   15:50   38.4    75    1.6   331      3.2   810.3    0.00      21    34.3
 354   16:00   38.1    76    2.3    18      4.0   810.4    0.00      13    34.2
 354   16:10   38.1    76    1.9    17      4.5   810.4    0.00       7    34.2
 354   16:20   37.8    76    1.8    32      3.1   810.4    0.00       7    34.2
 354   16:30   37.7    76    2.5    14      4.5   810.4    0.00       6    34.1
 354   16:40   37.7    76    3.1    18      4.2   810.4    0.00       2    34.1
 354   16:50   37.2    77    3.3   351      4.3   810.6    0.00       0    34.0
 354   17:00   37.0    78    2.7    22      5.5   810.4    0.00       0    33.9
 354   17:10   36.5    79    1.5    18      5.6   810.6    0.00       0    33.8
 354   17:20   35.9    80    1.8   308      3.6   810.7    0.00       0    33.6
 354   17:30   35.2    82    3.5   326      5.8   810.8    0.00       0    33.6
 354   17:40   35.1    83    4.1   335      6.0   810.9    0.00       0    33.6
 354   17:50   34.8    84    4.2   315      6.1   810.9    0.00       0    33.6
 354   18:00   34.7    85    2.4   308      3.3   810.8    0.00       0    33.6
 354   18:10   34.9    85    0.6   324      3.0   810.9    0.00       0    33.6
 354   18:20   34.8    85    1.7    10      2.8   810.8    0.00       0    33.5
 354   18:30   34.3    86    3.2    30      3.8   810.7    0.00       0    33.5
 354   18:40   34.3    86    3.7    22      4.7   810.9    0.00       1    33.5
 354   18:50   34.6    85    3.5   353      4.8   811.3    0.00       0    33.5
 354   19:00   34.7    85    4.1     2      4.7   811.5    0.00       0    33.5
 354   19:10   34.8    85    0.7    34      3.8   811.5    0.00       0    33.5
 354   19:20   34.8    85    3.1    64      4.9   811.5    0.00       0    33.5
 354   19:30   34.7    85    5.0    46      6.1   811.5    0.00       0    33.5
 354   19:40   34.8    84    1.9    28      5.3   811.5    0.00       0    33.5
 354   19:50   34.8    84    2.9    20      5.4   811.5    0.00       0    33.4
 354   20:00   35.2    83    3.9    17      5.4   811.5    0.00       0    33.4
 354   20:10   35.2    83    3.4     0      4.7   811.5    0.00       0    33.4
 354   20:20   34.8    84    3.8   323      4.8   811.6    0.00       1    33.5
 354   20:30   34.7    84    3.2   269      5.8   811.6    0.00       0    33.4
 354   20:40   35.1    83    2.5   323      4.9   811.5    0.00       0    33.4
 354   20:50   35.2    83    3.0   294      4.9   811.6    0.00       1    33.5
 354   21:00   35.4    82    2.2   354      3.1   811.8    0.00       0    33.5
 354   21:10   35.2    83    2.1    24      2.6   811.7    0.00       1    33.5
 354   21:20   34.9    84    1.4   353      3.1   811.6    0.00       0    33.6
 354   21:30   34.5    85    2.5   313      3.1   811.7    0.00       0    33.5
 354   21:40   34.2    86    3.0   306      3.7   811.7    0.00       0    33.5
 354   21:50   34.0    87    3.5   291      4.3   811.9    0.00       0    33.5
 354   22:00   34.0    87    3.9   291      6.1   812.1    0.00       0    33.5
 354   22:10   34.3    86    1.8   318      4.0   812.2    0.00       0    33.5
 354   22:20   34.6    86    1.7   351      2.8   812.1    0.00       1    33.5
 354   22:30   34.7    85    1.6   338      2.6   812.0    0.00       0    33.5
 354   22:40   34.7    86    2.4   313      3.7   812.0    0.00       0    33.5
 354   22:50   34.5    87    3.3     4      4.2   812.0    0.00       0    33.5
 354   23:00   34.4    88    3.1   358      4.5   812.1    0.00       0    33.5
 354   23:10   34.7    88    2.9   326      4.4   812.1    0.00       0    33.5
 354   23:20   34.8    88    2.7   316      3.7   812.2    0.00       0    33.6
 354   23:30   34.6    89    0.9   309      3.4   812.2    0.01       0    33.6
 354   23:40   34.5    89    1.9   306      4.8   812.3    0.00       1    33.6
 354   23:50   34.2    90    2.9   310      4.2   812.3    0.02       1    33.5
 355    0:00   34.1    91    1.0   313      3.9   812.3    0.01       0    33.4
 355    0:10   34.0    92    0.5   352      2.1   812.3    0.01       0    33.3
 355    0:20   34.0    93    2.4    22      4.1   812.3    0.01       1    33.3
 355    0:30   34.2    93    1.7    54      3.7   812.1    0.01       1    33.3
 355    0:40   35.4    92    3.4    60      5.9   811.9    0.01       0    33.3
 355    0:50   35.9    91    2.4    63      4.5   811.8    0.00       0    33.4
 355    1:00   36.1    91    0.6    98      2.3   811.6    0.00       1    33.5
 355    1:10   35.1    91    1.1   197      2.8   811.4    0.00       0    33.6
 355    1:20   34.7    92    2.5   208      5.8   811.3    0.00       0    33.5
 355    1:30   34.1    93    1.1   216      3.7   811.3    0.00       0    33.6
 355    1:40   33.8    93    4.4   267      7.5   811.6    0.00       0    33.6
 355    1:50   33.6    94    5.7   292      7.7   811.6    0.00       1    33.6
 355    2:00   33.7    95    3.8   273      5.5   811.5    0.00       0    33.6
 355    2:10   33.9    95    2.8   242      4.8   811.7    0.00       0    33.6
 355    2:20   34.3    95    1.8    86      4.2   811.6    0.00       1    33.6
 355    2:30   34.4    95    1.5   138      3.9   811.6    0.00       1    33.7
 355    2:40   34.8    94    3.4   213      7.3   811.8    0.01       1    33.7
 355    2:50   34.8    94    1.2   197      3.9   811.9    0.00       0    33.8
 355    3:00   35.0    93    0.8    11      2.6   812.0    0.00       0    33.8
 355    3:10   35.3    93    0.6     3      2.0   811.8    0.00       0    33.9
 355    3:20   35.4    92    1.9   101      3.9   811.7    0.00       1    33.9
 355    3:30   35.4    92    3.6   138      5.0   811.1    0.00       1    34.0
 355    3:40   35.1    93    4.2   127      5.6   810.8    0.00       1    34.0
 355    3:50   35.3    93    3.1   118      5.3   810.6    0.00       0    34.0
 355    4:00   36.2    93    1.2   157      3.1   811.0    0.00       0    34.0
 355    4:10   36.6    92    1.6   217      4.9   811.2    0.00       0    34.1
 355    4:20   36.6    91    2.0   146      3.4   810.8    0.00       0    34.1
 355    4:30   36.3    91    3.2   164      5.2   810.9    0.00       1    34.2
 355    4:40   36.6    91    1.5   194      3.0   811.2    0.00       1    34.2
 355    4:50   37.1    91    0.2    85      1.6   811.2    0.00       0    34.3
 355    5:00   36.5    90    2.2   224      4.1   811.1    0.00       0    34.3
 355    5:10   36.3    91    1.3   138      3.1   810.9    0.00       0    34.4
 355    5:20   36.1    92    3.9   148      5.0   810.8    0.00       0    34.4
 355    5:30   36.3    92    2.8   139      4.1   810.8    0.00       1    34.4
 355    5:40   36.1    92    5.0   189      6.9   811.0    0.00       1    34.4
 355    5:50   36.1    93    6.5   192      7.7   810.9    0.00       0    34.4
 355    6:00   37.2    92    5.2   192      6.0   811.0    0.00       0    34.4
 355    6:10   37.1    91    3.8   216      5.6   811.1    0.00       0    34.5
 355    6:20   37.3    91    3.1   211      4.4   811.1    0.00       0    34.5
 355    6:30   37.5    90    1.2   203      3.6   811.3    0.00       0    34.5
 355    6:40   37.0    90    0.0   247      0.1   811.3    0.00       0    34.6
 355    6:50   36.8    91    0.1   170      1.2   811.4    0.00       1    34.6
 355    7:00   36.9    91    1.0   115      2.7   811.4    0.00       4    34.7
 355    7:10   37.2    91    0.6    98      2.6   811.5    0.00       7    34.7
 355    7:20   37.4    91    0.6    23      2.9   811.3    0.00       7    34.8
 355    7:30   37.0    92    1.0    63      2.7   811.1    0.00       7    34.8
 355    7:40   37.1    92    0.1   180      1.6   811.2    0.00      23    34.8
 355    7:50   37.4    91    1.3    97      2.9   811.2    0.00      32    34.9
 355    8:00   37.8    91    0.8    93      2.0   811.2    0.00      41    35.0
 355    8:10   38.3    90    0.9    24      2.6   811.6    0.00      28    35.2
 355    8:20   38.3    90    2.8    33      3.8   811.6    0.00      28    35.3
 355    8:30   39.0    88    1.5    42      3.1   811.6    0.00      52    35.4
 355    8:40   39.6    88    0.0     0      0.0   811.6    0.00      75    35.7
 355    8:50   39.9    87    0.0     0      0.0   811.7    0.00      46    35.9
 355    9:00   40.1    88    1.2    43      4.1   811.8    0.00      59    36.1
 355    9:10   41.2    84    2.2    47      4.9   811.8    0.00      63    36.3
 355    9:20   41.5    86    4.2    44      5.6   811.9    0.00      86    36.5
 355    9:30   43.2    78    4.7    39      6.9   811.8    0.00     142    36.9
 355    9:40   44.9    73    4.2    18      5.3   811.8    0.00     163    37.4
 355    9:50   44.3    79    2.0   282      5.2   811.7    0.00     187    38.0
 355   10:00   44.8    78    2.1   255      5.2   811.6    0.00     141    38.6
 355   10:10   45.7    73    2.4   302      4.2   811.6    0.00     179    39.0
 355   10:20   46.4    70    2.0   216      4.5   811.4    0.00     226    39.6
 355   10:30   47.2    64    3.9     5      6.5   811.5    0.00     157    40.2
 355   10:40   47.4    66    2.6   326      5.8   811.7    0.00     108    40.4
 355   10:50   47.4    67    3.5   338      5.8   811.6    0.00     109    40.6
 355   11:00   47.7    64    3.3     2      6.6   811.3    0.00     113    40.8
 355   11:10   47.9    63    4.3   341      6.9   811.3    0.00     141    40.9
 355   11:20   48.5    60    3.8    16      6.4   811.2    0.00     138    41.2
 355   11:30   48.9    60    1.5   136      4.9   811.0    0.00     139    41.4
 355   11:40   49.3    60    0.3   127      1.6   810.9    0.00     170    41.6
 355   11:50   49.6    58    4.1    29     11.0   810.8    0.00     138    42.0
 355   12:00   49.3    60    7.6    39     12.0   810.8    0.00      60    42.1
 355   12:10   49.0    58    8.5   360     14.5   810.8    0.00      75    41.9
 355   12:20   49.1    58    5.3   359      9.2   810.9    0.00      68    41.8
 355   12:30   49.0    59    1.6   131      4.5   810.8    0.00      71    41.8
 355   12:40   48.8    60    2.2   143      4.3   810.7    0.00      73    41.8
 355   12:50   48.7    62    3.4   144      6.4   810.4    0.00      82    41.9
 355   13:00   48.5    63    3.4    80      6.2   810.4    0.00      68    41.9
 355   13:10   49.6    58    5.3    40     12.1   810.4    0.00      63    41.9
 355   13:20   49.9    57    7.3    44     19.5   810.5    0.00      51    41.9
 355   13:30   50.3    55    6.8    46     15.3   810.4    0.00      38    41.8

Return to Ely, Nevada graphs page.


Western Regional Climate Center,wrcc@dri.edu